createdAt,value
2022-08-17T00:00:49.398Z,100942.69
2022-08-17T00:04:13.786Z,100944.91
2022-08-17T00:07:38.296Z,100945.22
2022-08-17T00:11:02.762Z,100945.41
2022-08-17T00:14:24.697Z,100942.34
2022-08-17T00:17:48.169Z,100938.59
2022-08-17T00:21:12.249Z,100944.47
2022-08-17T00:24:35.569Z,100942.78
2022-08-17T00:27:59.022Z,100944.66
2022-08-17T00:31:22.693Z,100942.34
2022-08-17T00:34:44.382Z,100942.50
2022-08-17T00:38:09.748Z,100944.56
2022-08-17T00:41:31.769Z,100945.16
2022-08-17T00:44:54.979Z,100949.44
2022-08-17T00:48:29.159Z,100956.06
2022-08-17T00:51:56.186Z,100950.75
2022-08-17T00:55:18.866Z,100953.03
2022-08-17T00:58:42.077Z,100943.25
2022-08-17T01:02:07.245Z,100939.03
2022-08-17T01:05:33.070Z,100948.13
2022-08-17T01:08:57.273Z,100955.78
2022-08-17T01:12:19.771Z,100955.97
2022-08-17T01:15:47.481Z,100960.72
2022-08-17T01:19:17.915Z,100957.09
2022-08-17T01:22:41.296Z,100955.13
2022-08-17T01:26:06.079Z,100965.00
2022-08-17T01:29:30.797Z,100967.06
2022-08-17T01:32:52.925Z,100977.41
2022-08-17T01:36:14.676Z,100972.38
2022-08-17T01:39:42.152Z,100978.13
2022-08-17T01:43:09.526Z,100982.03
2022-08-17T01:46:35.578Z,100979.72
2022-08-17T01:49:57.211Z,100976.91
2022-08-17T01:53:23.207Z,100976.97
2022-08-17T01:56:49.414Z,100971.84
2022-08-17T02:00:13.224Z,100970.91
2022-08-17T02:03:37.087Z,100969.59
2022-08-17T02:06:59.331Z,100975.34
2022-08-17T02:10:22.362Z,100968.63
2022-08-17T02:13:46.642Z,100968.13
2022-08-17T02:17:08.474Z,100968.13
2022-08-17T02:20:41.376Z,100969.00
2022-08-17T02:24:05.719Z,100959.88
2022-08-17T02:27:27.931Z,100967.28
2022-08-17T02:31:01.669Z,100971.00
2022-08-17T02:34:24.415Z,100969.13
2022-08-17T02:37:46.379Z,100974.72
2022-08-17T02:41:13.749Z,100974.25
2022-08-17T02:44:39.862Z,100975.44
2022-08-17T02:48:03.420Z,100971.41
2022-08-17T02:51:25.534Z,100969.09
2022-08-17T02:54:47.911Z,100981.09
2022-08-17T02:58:12.196Z,100972.34
2022-08-17T03:01:34.157Z,100973.34
2022-08-17T03:04:57.332Z,100971.66
2022-08-17T03:08:19.914Z,100974.53
2022-08-17T03:11:41.671Z,100969.50
2022-08-17T03:15:05.044Z,100978.97
2022-08-17T03:18:28.002Z,100977.31
2022-08-17T03:21:55.376Z,100978.31
2022-08-17T03:25:19.668Z,100967.22
2022-08-17T03:28:44.555Z,100972.94
2022-08-17T03:32:12.645Z,100967.09
2022-08-17T03:35:36.417Z,100974.53
2022-08-17T03:38:59.226Z,100966.78
2022-08-17T03:42:32.262Z,100967.97
2022-08-17T03:46:33.992Z,100971.03
2022-08-17T03:50:10.758Z,100963.66
2022-08-17T03:54:01.042Z,100964.69
2022-08-17T03:57:24.387Z,100960.31
2022-08-17T04:00:46.518Z,100961.97
2022-08-17T04:04:08.788Z,100963.66
2022-08-17T04:07:31.897Z,100962.63
2022-08-17T04:10:53.849Z,100960.75
2022-08-17T04:14:17.141Z,100962.63
2022-08-17T04:17:39.523Z,100970.72
2022-08-17T04:21:01.782Z,100968.84
2022-08-17T04:24:23.458Z,100972.41
2022-08-17T04:27:45.374Z,100967.66
2022-08-17T04:31:09.305Z,100970.38
2022-08-17T04:34:31.460Z,100972.41
2022-08-17T04:37:54.044Z,100979.47
2022-08-17T04:41:34.635Z,100973.06
2022-08-17T04:44:56.222Z,100987.03
2022-08-17T04:48:19.762Z,100990.22
2022-08-17T04:51:45.514Z,100985.69
2022-08-17T04:55:17.503Z,100994.22
2022-08-17T04:58:39.413Z,100999.25
2022-08-17T05:02:00.974Z,100996.03
2022-08-17T05:05:27.353Z,101001.94
2022-08-17T05:08:48.986Z,101005.59
2022-08-17T05:12:10.630Z,101006.06
2022-08-17T05:15:36.048Z,101004.72
2022-08-17T05:18:59.278Z,101009.38
2022-08-17T05:22:22.642Z,101014.22
2022-08-17T05:25:47.760Z,101013.50
2022-08-17T05:29:09.376Z,101023.44
2022-08-17T05:32:38.906Z,101027.94
2022-08-17T05:36:02.543Z,101037.00
2022-08-17T05:39:25.620Z,101033.41
2022-08-17T05:42:48.259Z,101037.88
2022-08-17T05:46:18.055Z,101039.50
2022-08-17T05:49:40.133Z,101036.72
2022-08-17T05:53:07.483Z,101039.34
2022-08-17T05:56:50.413Z,101040.09
2022-08-17T06:00:19.252Z,101040.88
2022-08-17T06:03:50.518Z,101043.47
2022-08-17T06:07:21.927Z,101043.63
2022-08-17T06:10:48.837Z,101045.38
2022-08-17T06:14:26.562Z,101045.97
2022-08-17T06:17:48.274Z,101053.97
2022-08-17T06:21:14.685Z,101049.66
2022-08-17T06:24:40.161Z,101056.19
2022-08-17T06:28:05.720Z,101051.53
2022-08-17T06:31:34.251Z,101048.69
2022-08-17T06:34:57.455Z,101049.44
2022-08-17T06:38:37.655Z,101046.63
2022-08-17T06:43:02.536Z,101042.31
2022-08-17T06:45:59.894Z,101043.78
2022-08-17T06:49:29.546Z,101042.66
2022-08-17T06:52:56.210Z,101050.69
2022-08-17T06:56:53.071Z,101053.06
2022-08-17T07:00:16.655Z,101053.38
2022-08-17T07:03:45.346Z,101056.41
2022-08-17T07:07:25.696Z,101054.03
2022-08-17T07:10:50.290Z,101048.72
2022-08-17T07:14:29.176Z,101055.94
2022-08-17T07:17:52.251Z,101045.84
2022-08-17T07:21:26.497Z,101051.16
2022-08-17T07:24:53.499Z,101050.00
2022-08-17T07:28:22.919Z,101043.59
2022-08-17T07:31:45.329Z,101049.50
2022-08-17T07:35:17.258Z,101040.84
2022-08-17T07:38:56.986Z,101049.47
2022-08-17T07:42:20.588Z,101049.28
2022-08-17T07:46:10.727Z,101046.41
2022-08-17T07:49:37.118Z,101047.03
2022-08-17T07:52:59.227Z,101045.81
2022-08-17T07:56:41.027Z,101049.97
2022-08-17T08:00:23.901Z,101043.72
2022-08-17T08:03:53.711Z,101041.16
2022-08-17T08:07:26.747Z,101044.06
2022-08-17T08:11:00.079Z,101049.25
2022-08-17T08:14:29.500Z,101042.06
2022-08-17T08:17:55.427Z,101040.50
2022-08-17T08:21:21.988Z,101050.06
2022-08-17T08:24:57.292Z,101047.66
2022-08-17T08:28:27.277Z,101039.56
2022-08-17T08:31:58.010Z,101048.00
2022-08-17T08:35:30.954Z,101046.66
2022-08-17T08:39:01.156Z,101059.13
2022-08-17T08:42:28.867Z,101053.53
2022-08-17T08:45:57.243Z,101056.13
2022-08-17T08:50:06.688Z,101054.53
2022-08-17T08:53:40.571Z,101050.59
2022-08-17T08:57:26.748Z,101048.81
2022-08-17T09:00:55.838Z,101052.44
2022-08-17T09:05:10.548Z,101037.78
2022-08-17T09:08:34.914Z,101046.63
2022-08-17T09:12:09.490Z,101033.84
2022-08-17T09:15:37.722Z,101036.25
2022-08-17T09:19:05.342Z,101034.59
2022-08-17T09:22:34.122Z,101033.78
2022-08-17T09:26:01.979Z,101031.53
2022-08-17T09:29:26.363Z,101038.69
2022-08-17T09:32:55.372Z,101024.81
2022-08-17T09:36:21.730Z,101029.09
2022-08-17T09:39:52.587Z,101033.75
2022-08-17T09:43:28.867Z,101028.91
2022-08-17T09:46:55.369Z,101027.38
2022-08-17T09:51:03.709Z,101027.09
2022-08-17T09:54:37.709Z,101031.22
2022-08-17T09:58:12.016Z,101021.94
2022-08-17T10:01:40.613Z,101030.16
2022-08-17T10:05:07.647Z,101030.59
2022-08-17T10:08:37.390Z,101036.28
2022-08-17T10:12:17.774Z,101024.69
2022-08-17T10:15:49.467Z,101023.78
2022-08-17T10:19:17.165Z,101024.81
2022-08-17T10:23:02.167Z,101024.72
2022-08-17T10:26:28.143Z,101025.09
2022-08-17T10:30:13.838Z,101023.88
2022-08-17T10:33:49.841Z,101017.97
2022-08-17T10:37:32.061Z,101015.81
2022-08-17T10:40:58.986Z,101012.91
2022-08-17T10:44:37.943Z,101008.84
2022-08-17T10:48:22.841Z,101010.09
2022-08-17T10:51:47.940Z,101006.66
2022-08-17T10:55:18.922Z,101018.06
2022-08-17T10:58:49.591Z,101022.81
2022-08-17T11:02:18.915Z,101021.72
2022-08-17T11:05:58.856Z,101008.00
2022-08-17T11:09:36.377Z,101011.44
2022-08-17T11:13:05.713Z,101016.75
2022-08-17T11:16:49.755Z,101016.31
2022-08-17T11:20:29.085Z,101022.03
2022-08-17T11:24:14.906Z,101029.53
2022-08-17T11:27:37.750Z,101019.47
2022-08-17T11:31:09.452Z,101022.28
2022-08-17T11:34:32.926Z,101019.03
2022-08-17T11:38:09.710Z,101015.03
2022-08-17T11:41:49.946Z,101016.75
2022-08-17T11:45:33.062Z,101001.16
2022-08-17T11:49:27.284Z,101000.66
2022-08-17T11:52:50.998Z,100997.97
2022-08-17T11:56:32.114Z,100991.22
2022-08-17T12:00:07.518Z,100995.63
2022-08-17T12:03:55.246Z,101003.09
2022-08-17T12:07:21.794Z,100997.38
2022-08-17T12:10:55.356Z,100998.25
2022-08-17T12:14:35.498Z,100992.50
2022-08-17T12:18:04.431Z,100990.38
2022-08-17T12:21:45.132Z,100994.84
2022-08-17T12:25:14.907Z,100993.78
2022-08-17T12:28:39.758Z,100991.41
2022-08-17T12:32:03.495Z,100997.25
2022-08-17T12:35:29.908Z,100985.97
2022-08-17T12:39:00.118Z,100982.69
2022-08-17T12:42:39.433Z,100979.72
2022-08-17T12:46:15.395Z,100973.16
2022-08-17T12:49:39.413Z,100979.81
2022-08-17T12:53:02.692Z,100988.09
2022-08-17T12:56:24.213Z,100981.28
2022-08-17T12:59:53.504Z,100982.09
2022-08-17T13:03:19.199Z,100973.22
2022-08-17T13:06:51.561Z,100976.84
2022-08-17T13:10:32.135Z,100965.91
2022-08-17T13:13:56.941Z,100967.56
2022-08-17T13:17:27.528Z,100965.06
2022-08-17T13:20:54.292Z,100960.63
2022-08-17T13:24:19.925Z,100956.00
2022-08-17T13:27:44.116Z,100952.75
2022-08-17T13:31:39.443Z,100954.72
2022-08-17T13:35:39.464Z,100953.94
2022-08-17T13:39:13.498Z,100954.25
2022-08-17T13:42:53.164Z,100942.38
2022-08-17T13:46:21.630Z,100957.22
2022-08-17T13:49:48.803Z,100952.56
2022-08-17T13:53:22.698Z,100947.41
2022-08-17T13:56:55.031Z,100943.91
2022-08-17T14:00:21.281Z,100940.94
2022-08-17T14:03:44.358Z,100941.28
2022-08-17T14:07:28.957Z,100943.75
2022-08-17T14:10:59.350Z,100950.41
2022-08-17T14:14:23.241Z,100947.94
2022-08-17T14:17:45.193Z,100954.31
2022-08-17T14:21:08.468Z,100946.88
2022-08-17T14:24:32.790Z,100949.91
2022-08-17T14:27:57.035Z,100950.19
2022-08-17T14:31:20.634Z,100947.47
2022-08-17T14:34:42.836Z,100939.78
2022-08-17T14:38:05.885Z,100938.34
2022-08-17T14:41:27.430Z,100932.00
2022-08-17T14:44:51.011Z,100935.59
2022-08-17T14:48:12.746Z,100937.53
2022-08-17T14:51:34.921Z,100934.81
2022-08-17T14:55:06.567Z,100938.13
2022-08-17T14:58:29.613Z,100928.50
2022-08-17T15:01:52.848Z,100932.69
2022-08-17T15:05:16.497Z,100934.03
2022-08-17T15:08:38.491Z,100925.78
2022-08-17T15:12:02.307Z,100933.78
2022-08-17T15:15:24.307Z,100931.59
2022-08-17T15:18:47.422Z,100940.69
2022-08-17T15:22:27.100Z,100933.78
2022-08-17T15:25:52.606Z,100944.25
2022-08-17T15:29:14.690Z,100933.47
2022-08-17T15:32:39.374Z,100931.53
2022-08-17T15:36:06.456Z,100937.28
2022-08-17T15:39:28.218Z,100931.72
2022-08-17T15:42:51.075Z,100931.16
2022-08-17T15:46:17.288Z,100935.84
2022-08-17T15:49:41.126Z,100931.81
2022-08-17T15:53:04.987Z,100934.91
2022-08-17T15:56:27.635Z,100940.72
2022-08-17T15:59:52.106Z,100938.75
2022-08-17T16:04:01.622Z,100943.44
2022-08-17T16:07:02.335Z,100930.22
2022-08-17T16:10:35.040Z,100920.34
2022-08-17T16:13:57.709Z,100913.75
2022-08-17T16:17:38.866Z,100922.88
2022-08-17T16:21:23.541Z,100909.97
2022-08-17T16:24:57.040Z,100909.16
2022-08-17T16:28:21.804Z,100917.41
2022-08-17T16:31:43.760Z,100917.41
2022-08-17T16:35:06.802Z,100911.09
2022-08-17T16:38:28.556Z,100913.81
2022-08-17T16:41:50.600Z,100913.03
2022-08-17T16:45:17.114Z,100921.53
2022-08-17T16:48:39.047Z,100923.75
2022-08-17T16:52:03.235Z,100926.50
2022-08-17T16:55:25.129Z,100912.69
2022-08-17T16:58:47.718Z,100914.06
2022-08-17T17:02:16.268Z,100917.59
2022-08-17T17:05:51.457Z,100917.59
2022-08-17T17:09:24.888Z,100921.97
2022-08-17T17:13:03.860Z,100921.06
2022-08-17T17:16:35.166Z,100924.84
2022-08-17T17:20:04.025Z,100914.03
2022-08-17T17:23:51.550Z,100912.25
2022-08-17T17:27:31.826Z,100916.50
2022-08-17T17:31:02.408Z,100909.78
2022-08-17T17:34:26.778Z,100911.25
2022-08-17T17:37:52.340Z,100912.97
2022-08-17T17:41:26.436Z,100910.06
2022-08-17T17:44:50.821Z,100918.88
2022-08-17T17:48:12.918Z,100917.53
2022-08-17T17:52:07.158Z,100921.44
2022-08-17T17:55:36.071Z,100923.66
2022-08-17T17:59:03.258Z,100925.00
2022-08-17T18:02:52.114Z,100930.75
2022-08-17T18:06:26.750Z,100935.41
2022-08-17T18:10:02.704Z,100931.78
2022-08-17T18:13:32.467Z,100935.09
2022-08-17T18:16:57.906Z,100937.91
2022-08-17T18:20:32.418Z,100943.09
2022-08-17T18:24:08.500Z,100932.91
2022-08-17T18:27:34.623Z,100950.69
2022-08-17T18:31:11.673Z,100947.16
2022-08-17T18:34:46.998Z,100944.22
2022-08-17T18:38:21.740Z,100935.66
2022-08-17T18:41:44.769Z,100947.91
2022-08-17T18:45:06.965Z,100951.72
2022-08-17T18:48:36.098Z,100941.84
2022-08-17T18:52:11.968Z,100943.16
2022-08-17T18:55:34.106Z,100951.44
2022-08-17T18:59:22.823Z,100961.88
2022-08-17T19:02:57.432Z,100968.72
2022-08-17T19:06:27.939Z,100972.63
2022-08-17T19:09:53.849Z,100970.22
2022-08-17T19:13:23.901Z,100973.69
2022-08-17T19:16:52.037Z,100971.63
2022-08-17T19:20:18.694Z,100970.66
2022-08-17T19:23:53.350Z,100971.72
2022-08-17T19:27:22.000Z,100971.84
2022-08-17T19:30:45.239Z,100969.31
2022-08-17T19:34:07.105Z,100960.66
2022-08-17T19:37:37.710Z,100962.31
2022-08-17T19:41:08.441Z,100970.06
2022-08-17T19:44:43.249Z,100966.72
2022-08-17T19:48:14.783Z,100965.06
2022-08-17T19:51:45.172Z,100967.66
2022-08-17T19:55:20.579Z,100962.06
2022-08-17T19:58:53.578Z,100963.59
2022-08-17T20:02:36.702Z,100965.13
2022-08-17T20:06:12.726Z,100960.31
2022-08-17T20:09:39.035Z,100957.06
2022-08-17T20:13:06.377Z,100955.50
2022-08-17T20:16:29.834Z,100968.13
2022-08-17T20:19:55.416Z,100960.88
2022-08-17T20:23:31.858Z,100962.41
2022-08-17T20:26:59.665Z,100965.34
2022-08-17T20:30:38.435Z,100964.34
2022-08-17T20:34:40.731Z,100953.88
2022-08-17T20:38:05.152Z,100963.97
2022-08-17T20:41:29.535Z,100958.06
2022-08-17T20:44:54.411Z,100957.22
2022-08-17T20:48:36.898Z,100970.03
2022-08-17T20:52:08.237Z,100964.34
2022-08-17T20:55:54.739Z,100971.91
2022-08-17T20:59:50.075Z,100966.47
2022-08-17T21:03:50.234Z,100960.78
2022-08-17T21:07:30.073Z,100963.31
2022-08-17T21:10:54.706Z,100960.59
2022-08-17T21:14:29.568Z,100962.69
2022-08-17T21:18:06.514Z,100963.75
2022-08-17T21:21:41.543Z,100963.97
2022-08-17T21:25:19.559Z,100959.59
2022-08-17T21:29:00.946Z,100965.50
2022-08-17T21:32:31.208Z,100963.44
2022-08-17T21:35:58.542Z,100964.97
2022-08-17T21:39:24.278Z,100971.06
2022-08-17T21:42:59.039Z,100967.13
2022-08-17T21:46:28.846Z,100978.91
2022-08-17T21:49:51.655Z,100977.91
2022-08-17T21:53:25.398Z,100971.47
2022-08-17T21:56:49.674Z,100975.72
2022-08-17T22:00:24.055Z,100981.81
2022-08-17T22:03:48.159Z,100977.69
2022-08-17T22:07:12.418Z,100977.72
2022-08-17T22:10:38.460Z,100974.22
2022-08-17T22:14:05.403Z,100972.81
2022-08-17T22:17:35.831Z,100973.09
2022-08-17T22:21:00.040Z,100975.88
2022-08-17T22:24:31.068Z,100977.59
2022-08-17T22:27:56.559Z,100981.16
2022-08-17T22:31:20.849Z,100985.59
2022-08-17T22:34:44.035Z,100990.25
2022-08-17T22:38:33.431Z,100990.28
2022-08-17T22:42:00.378Z,100989.91
2022-08-17T22:45:24.274Z,100990.53
2022-08-17T22:48:50.196Z,100996.88
2022-08-17T22:52:32.699Z,100997.72
2022-08-17T22:56:14.908Z,100990.41
2022-08-17T22:59:47.811Z,100988.34
2022-08-17T23:03:17.710Z,101000.94
2022-08-17T23:06:42.258Z,100999.91
2022-08-17T23:10:06.999Z,100997.38
2022-08-17T23:13:33.400Z,101003.88
2022-08-17T23:16:54.998Z,100998.03
2022-08-17T23:20:17.703Z,100997.63
2022-08-17T23:23:40.279Z,100995.56
2022-08-17T23:27:07.670Z,100989.72
2022-08-17T23:30:30.444Z,100987.63
2022-08-17T23:33:52.418Z,100981.97
2022-08-17T23:37:16.769Z,100982.84
2022-08-17T23:40:39.560Z,100971.78
2022-08-17T23:44:05.450Z,100973.44
2022-08-17T23:47:28.570Z,100973.88
2022-08-17T23:50:51.693Z,100966.34
2022-08-17T23:54:20.994Z,100963.44
2022-08-17T23:57:43.166Z,100962.19
